Time;durP1;ratioP1;P1;durP2;ratioP2;P2;SDS_P1;SDS_P2;PMS_P1;PMS_P2;Temp;Humidity;BMP_temperature;BMP_pressure;BME280_temperature;BME280_humidity;BME280_pressure;Samples;Min_cycle;Max_cycle;Signal;HPM_P1;HPM_P2
2021/03/10 00:01:27;;;;;;;31.02;16.85;;;4.30;99.90;;;;;;5050109;28;20498;-45
2021/03/10 00:03:52;;;;;;;27.98;15.88;;;4.30;99.90;;;;;;5048407;28;20025;-47
2021/03/10 00:06:18;;;;;;;29.73;16.10;;;4.30;99.90;;;;;;5047790;28;20029;-45
2021/03/10 00:08:43;;;;;;;28.38;16.05;;;4.30;99.90;;;;;;5048451;28;20539;-46
2021/03/10 00:11:09;;;;;;;27.40;16.33;;;4.20;99.90;;;;;;5049450;28;20249;-47
2021/03/10 00:13:34;;;;;;;30.92;16.92;;;4.30;99.90;;;;;;5048951;28;20021;-49
2021/03/10 00:16:00;;;;;;;30.63;16.52;;;4.30;99.90;;;;;;5049408;28;20498;-45
2021/03/10 00:18:25;;;;;;;34.53;18.30;;;4.30;99.90;;;;;;5049303;28;20032;-46
2021/03/10 00:20:51;;;;;;;33.83;18.15;;;4.30;99.90;;;;;;5049584;28;20024;-46
2021/03/10 00:23:16;;;;;;;26.45;15.60;;;4.30;99.90;;;;;;5049411;28;20465;-45
2021/03/10 00:25:42;;;;;;;38.47;19.15;;;4.30;99.90;;;;;;5048701;28;20025;-45
2021/03/10 00:28:09;;;;;;;31.98;17.45;;;4.30;99.90;;;;;;5049154;28;20108;-47
2021/03/10 00:30:35;;;;;;;29.30;16.73;;;4.30;99.90;;;;;;5049170;28;20021;-46
2021/03/10 00:33:00;;;;;;;28.63;15.98;;;4.30;99.90;;;;;;5048300;28;20456;-49
2021/03/10 00:35:26;;;;;;;28.70;16.63;;;4.20;99.90;;;;;;5048452;28;20033;-45
2021/03/10 00:37:51;;;;;;;30.70;17.20;;;4.30;99.90;;;;;;5048893;28;20686;-48
2021/03/10 00:40:17;;;;;;;32.38;16.95;;;4.30;99.90;;;;;;5049283;28;20367;-46
2021/03/10 00:42:42;;;;;;;31.27;16.30;;;4.30;99.90;;;;;;5049086;28;20095;-45
2021/03/10 00:45:08;;;;;;;32.85;17.08;;;4.30;99.90;;;;;;5048401;28;20028;-46
2021/03/10 00:47:34;;;;;;;27.50;16.60;;;4.20;99.90;;;;;;5047262;28;20558;-46
2021/03/10 00:50:01;;;;;;;29.23;16.23;;;4.20;99.90;;;;;;5048938;28;20115;-45
2021/03/10 00:52:26;;;;;;;27.75;16.20;;;4.20;99.90;;;;;;5047434;28;20017;-45
2021/03/10 00:54:52;;;;;;;28.75;15.95;;;4.30;99.90;;;;;;5048720;28;20372;-45
2021/03/10 00:57:17;;;;;;;26.25;15.63;;;4.30;99.90;;;;;;5049151;28;20037;-44
2021/03/10 00:59:43;;;;;;;32.45;16.98;;;4.30;99.90;;;;;;5048775;28;20425;-45
2021/03/10 01:02:08;;;;;;;30.30;17.45;;;4.30;99.90;;;;;;5048640;28;20092;-45
2021/03/10 01:04:33;;;;;;;27.40;16.67;;;4.30;99.90;;;;;;5048979;28;20390;-45
2021/03/10 01:06:59;;;;;;;27.77;16.13;;;4.30;99.90;;;;;;5046800;28;20029;-45
2021/03/10 01:09:25;;;;;;;30.67;16.55;;;4.30;99.90;;;;;;5046821;28;20474;-45
2021/03/10 01:11:50;;;;;;;27.98;16.35;;;4.30;99.90;;;;;;5048457;28;20021;-46
2021/03/10 01:14:16;;;;;;;30.00;16.92;;;4.30;99.90;;;;;;5048438;28;20180;-45
2021/03/10 01:16:42;;;;;;;27.60;15.75;;;4.30;99.90;;;;;;5047617;28;20028;-46
2021/03/10 01:19:08;;;;;;;30.02;16.23;;;4.30;99.90;;;;;;5053596;28;20388;-47
2021/03/10 01:21:34;;;;;;;28.73;16.50;;;4.30;99.90;;;;;;5058633;28;20022;-49
2021/03/10 01:23:59;;;;;;;29.33;16.83;;;4.30;99.90;;;;;;5056322;28;20029;-47
2021/03/10 01:26:25;;;;;;;27.08;15.80;;;4.30;99.90;;;;;;5058065;28;20075;-47
2021/03/10 01:28:50;;;;;;;32.33;18.17;;;4.30;99.90;;;;;;5056803;28;20084;-46
2021/03/10 01:31:16;;;;;;;27.02;16.90;;;4.30;99.90;;;;;;5058932;28;20313;-45
2021/03/10 01:33:41;;;;;;;29.75;17.67;;;4.30;99.90;;;;;;5054530;28;20027;-46
2021/03/10 01:36:07;;;;;;;29.10;17.73;;;4.30;99.90;;;;;;5058364;28;20402;-46
2021/03/10 01:38:32;;;;;;;32.42;17.75;;;4.30;99.90;;;;;;5056927;28;20045;-48
2021/03/10 01:40:58;;;;;;;32.70;17.90;;;4.30;99.90;;;;;;5058358;28;20088;-48
2021/03/10 01:43:24;;;;;;;31.63;18.05;;;4.30;99.90;;;;;;5057662;28;20028;-46
2021/03/10 01:45:49;;;;;;;29.67;16.48;;;4.20;99.90;;;;;;5060904;28;20086;-47
2021/03/10 01:48:20;;;;;;;30.85;17.52;;;4.30;99.90;;;;;;5060809;28;20418;-46
2021/03/10 01:50:45;;;;;;;32.92;18.58;;;4.20;99.90;;;;;;5060995;28;20096;-48
2021/03/10 01:53:11;;;;;;;34.88;19.35;;;4.20;99.90;;;;;;5069484;28;20112;-46
2021/03/10 01:55:36;;;;;;;32.92;17.25;;;4.20;99.90;;;;;;5071543;28;20058;-46
2021/03/10 01:58:02;;;;;;;31.90;18.13;;;4.10;99.90;;;;;;5054284;28;20033;-46
2021/03/10 02:00:29;;;;;;;30.88;17.60;;;4.20;99.90;;;;;;5052098;28;20025;-45
2021/03/10 02:02:55;;;;;;;32.30;17.73;;;4.10;99.90;;;;;;5051215;28;20040;-46
2021/03/10 02:05:22;;;;;;;34.35;18.75;;;4.20;99.90;;;;;;5051284;28;20139;-45
2021/03/10 02:08:06;;;;;;;30.10;17.98;;;4.20;99.90;;;;;;5050386;28;20052;-46
2021/03/10 02:10:44;;;;;;;36.15;18.67;;;4.20;99.90;;;;;;5051980;28;20053;-44
2021/03/10 02:13:21;;;;;;;33.10;17.73;;;4.20;99.90;;;;;;5050190;28;20410;-44
2021/03/10 02:16:13;;;;;;;34.90;19.27;;;4.20;99.90;;;;;;5051478;28;20025;-45
2021/03/10 02:18:46;;;;;;;33.25;17.52;;;4.20;99.90;;;;;;5050922;28;20017;-44
2021/03/10 02:21:47;;;;;;;36.13;19.10;;;4.20;99.90;;;;;;5051771;28;20024;-48
2021/03/10 02:24:33;;;;;;;;;;;4.10;99.90;;;;;;5051965;28;20035;-46
2021/03/10 02:27:33;;;;;;;33.63;18.58;;;4.10;99.90;;;;;;5050233;28;19940;-45
2021/03/10 02:30:06;;;;;;;30.27;18.98;;;4.10;99.90;;;;;;5051608;28;20037;-45
2021/03/10 02:32:39;;;;;;;35.70;19.05;;;4.10;99.90;;;;;;5051949;28;20021;-46
2021/03/10 02:35:08;;;;;;;35.28;19.23;;;4.20;99.90;;;;;;5050957;28;20025;-46
2021/03/10 02:37:36;;;;;;;37.25;19.00;;;4.10;99.90;;;;;;5051251;28;20021;-45
2021/03/10 02:40:03;;;;;;;32.25;17.80;;;4.20;99.90;;;;;;5051281;28;20502;-46
2021/03/10 02:42:31;;;;;;;34.13;19.40;;;4.20;99.90;;;;;;5050626;28;20032;-45
2021/03/10 02:44:56;;;;;;;33.33;19.02;;;4.20;99.90;;;;;;5050862;28;20036;-46
2021/03/10 02:47:24;;;;;;;33.88;19.50;;;4.20;99.90;;;;;;5051498;28;20103;-46
2021/03/10 02:49:52;;;;;;;32.83;19.15;;;4.20;99.90;;;;;;5058777;28;20038;-46
2021/03/10 02:52:19;;;;;;;35.80;19.48;;;4.30;99.90;;;;;;5058374;28;20248;-46
2021/03/10 02:54:46;;;;;;;33.13;18.20;;;4.30;99.90;;;;;;5060559;28;20021;-46
2021/03/10 02:57:11;;;;;;;37.45;20.98;;;4.30;99.90;;;;;;5059036;28;20501;-45
2021/03/10 02:59:39;;;;;;;33.72;18.63;;;4.30;99.90;;;;;;5061239;28;20032;-46
2021/03/10 03:02:04;;;;;;;36.92;19.58;;;4.20;99.90;;;;;;5061405;28;20020;-45
2021/03/10 03:04:30;;;;;;;38.33;20.80;;;4.30;99.90;;;;;;5059186;28;20505;-46
2021/03/10 03:06:55;;;;;;;32.92;19.58;;;4.30;99.90;;;;;;5058416;28;20017;-46
2021/03/10 03:09:21;;;;;;;32.75;19.20;;;4.20;99.90;;;;;;5057433;28;20021;-45
2021/03/10 03:11:48;;;;;;;36.17;20.25;;;4.30;99.90;;;;;;5060711;28;20095;-46
2021/03/10 03:14:16;;;;;;;35.13;19.48;;;4.30;99.90;;;;;;5060095;28;20384;-46
2021/03/10 03:16:43;;;;;;;35.42;19.83;;;4.30;99.90;;;;;;5059990;28;20017;-45
2021/03/10 03:19:09;;;;;;;36.65;20.50;;;4.30;99.90;;;;;;5058733;28;20024;-47
2021/03/10 03:21:35;;;;;;;36.08;20.95;;;4.30;99.90;;;;;;5059792;28;20111;-46
2021/03/10 03:24:02;;;;;;;36.85;20.70;;;4.20;99.90;;;;;;5053128;28;20090;-45
2021/03/10 03:26:28;;;;;;;35.50;21.00;;;4.20;99.90;;;;;;5049446;28;20256;-45
2021/03/10 03:28:56;;;;;;;39.38;22.00;;;4.30;99.90;;;;;;5050393;28;20025;-45
2021/03/10 03:31:23;;;;;;;36.60;20.83;;;4.30;99.90;;;;;;5050333;28;20033;-46
2021/03/10 03:33:49;;;;;;;34.20;20.90;;;4.30;99.90;;;;;;5050199;28;20032;-46
2021/03/10 03:36:14;;;;;;;40.97;22.98;;;4.30;99.90;;;;;;5048405;28;20021;-45
2021/03/10 03:38:41;;;;;;;39.30;20.88;;;4.30;99.90;;;;;;5050105;28;20551;-45
2021/03/10 03:41:07;;;;;;;37.33;21.35;;;4.30;99.90;;;;;;5050395;28;20079;-45
2021/03/10 03:43:32;;;;;;;33.40;20.50;;;4.30;99.90;;;;;;5049814;28;20482;-45
2021/03/10 03:45:58;;;;;;;35.13;19.90;;;4.30;99.90;;;;;;5049713;28;20033;-45
2021/03/10 03:48:24;;;;;;;36.92;21.80;;;4.30;99.90;;;;;;5050024;28;20108;-45
2021/03/10 03:50:50;;;;;;;38.72;21.00;;;4.30;99.90;;;;;;5049917;28;20183;-46
2021/03/10 03:53:16;;;;;;;37.70;21.77;;;4.30;99.90;;;;;;5050247;28;20032;-45
2021/03/10 03:55:43;;;;;;;36.72;20.05;;;4.30;99.90;;;;;;5048740;28;20489;-45
2021/03/10 03:58:09;;;;;;;38.13;20.55;;;4.30;99.90;;;;;;5049744;28;20177;-45
2021/03/10 04:00:35;;;;;;;35.25;19.77;;;4.30;99.90;;;;;;5050029;28;20100;-45
2021/03/10 04:03:00;;;;;;;38.63;21.58;;;4.30;99.90;;;;;;5049911;28;20617;-47
2021/03/10 04:05:26;;;;;;;35.33;22.05;;;4.30;99.90;;;;;;5048958;28;20029;-46
2021/03/10 04:07:54;;;;;;;35.95;20.92;;;4.30;99.90;;;;;;5047377;28;20023;-49
2021/03/10 04:10:28;;;;;;;37.90;21.83;;;4.30;99.90;;;;;;5049395;28;20359;-47
2021/03/10 04:12:54;;;;;;;39.33;21.80;;;4.30;99.90;;;;;;5049773;28;20025;-45
2021/03/10 04:15:20;;;;;;;35.10;21.58;;;4.30;99.90;;;;;;5048791;28;20518;-45
2021/03/10 04:17:46;;;;;;;36.47;19.23;;;4.30;99.90;;;;;;5049472;28;20505;-46
2021/03/10 04:20:16;;;;;;;34.92;19.92;;;4.30;99.90;;;;;;5048663;28;20112;-46
2021/03/10 04:22:44;;;;;;;40.65;21.00;;;4.30;99.90;;;;;;5049333;28;20393;-45
2021/03/10 04:25:11;;;;;;;31.15;19.08;;;4.30;99.90;;;;;;5047535;28;20025;-45
2021/03/10 04:27:37;;;;;;;35.38;21.23;;;4.30;99.90;;;;;;5048707;28;20550;-46
2021/03/10 04:30:04;;;;;;;35.55;20.38;;;4.30;99.90;;;;;;5049334;28;20040;-46
2021/03/10 04:32:30;;;;;;;35.65;20.88;;;4.30;99.90;;;;;;5049253;28;20132;-45
2021/03/10 04:34:56;;;;;;;36.53;21.35;;;4.30;99.90;;;;;;5048566;28;20116;-45
2021/03/10 04:37:21;;;;;;;34.95;20.17;;;4.30;99.90;;;;;;5049382;28;20037;-45
2021/03/10 04:39:47;;;;;;;33.25;19.75;;;4.30;99.90;;;;;;5049423;28;20036;-46
2021/03/10 04:42:12;;;;;;;34.72;20.38;;;4.30;99.90;;;;;;5048762;28;20039;-45
2021/03/10 04:44:38;;;;;;;35.45;21.23;;;4.30;99.90;;;;;;5055305;28;20029;-45
2021/03/10 04:47:03;;;;;;;32.88;19.55;;;4.30;99.90;;;;;;5059872;28;20536;-45
2021/03/10 04:49:30;;;;;;;35.38;20.77;;;4.30;99.90;;;;;;5048760;28;20040;-45
2021/03/10 04:51:55;;;;;;;34.97;21.10;;;4.20;99.90;;;;;;5047605;28;20058;-45
2021/03/10 04:54:21;;;;;;;34.85;19.73;;;4.20;99.90;;;;;;5047536;28;20017;-45
2021/03/10 04:56:47;;;;;;;40.35;22.45;;;4.20;99.90;;;;;;5048136;28;20539;-45
2021/03/10 04:59:12;;;;;;;40.08;22.08;;;4.20;99.90;;;;;;5048451;28;20494;-46
2021/03/10 05:01:38;;;;;;;39.28;20.77;;;4.20;99.90;;;;;;5063853;28;20024;-45
2021/03/10 05:04:03;;;;;;;39.53;21.40;;;4.20;99.90;;;;;;5088748;28;20600;-46
2021/03/10 05:06:29;;;;;;;37.70;21.42;;;4.20;99.90;;;;;;5087403;28;20020;-46
2021/03/10 05:08:55;;;;;;;42.00;22.13;;;4.20;99.90;;;;;;5088507;28;20393;-47
2021/03/10 05:11:20;;;;;;;40.67;22.80;;;4.20;99.90;;;;;;5066369;28;20467;-46
2021/03/10 05:13:47;;;;;;;43.63;23.75;;;4.20;99.90;;;;;;5048360;28;20453;-46
2021/03/10 05:16:12;;;;;;;39.55;22.20;;;4.20;99.90;;;;;;5048126;28;20071;-47
2021/03/10 05:18:38;;;;;;;42.20;23.85;;;4.10;99.90;;;;;;5046949;28;20025;-46
2021/03/10 05:21:04;;;;;;;37.78;22.17;;;4.20;99.90;;;;;;5048128;28;20040;-46
2021/03/10 05:23:29;;;;;;;40.38;23.10;;;4.20;99.90;;;;;;5057535;28;20065;-47
2021/03/10 05:25:55;;;;;;;38.88;23.35;;;4.10;99.90;;;;;;5065833;28;20080;-52
2021/03/10 05:28:20;;;;;;;41.47;22.77;;;4.20;99.90;;;;;;5058392;28;20230;-46
2021/03/10 05:30:45;;;;;;;42.20;22.80;;;4.10;99.90;;;;;;5084172;28;20119;-47
2021/03/10 05:33:11;;;;;;;40.97;24.20;;;4.10;99.90;;;;;;5073859;28;20054;-46
2021/03/10 05:35:36;;;;;;;44.50;24.08;;;4.20;99.90;;;;;;5065241;28;20397;-46
2021/03/10 05:38:02;;;;;;;40.70;23.77;;;4.10;99.90;;;;;;5066836;28;20028;-48
2021/03/10 05:40:27;;;;;;;41.38;21.95;;;4.10;99.90;;;;;;5068162;28;20037;-47
2021/03/10 05:42:53;;;;;;;44.53;24.65;;;4.10;99.90;;;;;;5063458;28;20039;-47
2021/03/10 05:45:19;;;;;;;46.90;26.02;;;4.10;99.90;;;;;;5056207;28;20283;-48
2021/03/10 05:47:44;;;;;;;48.10;25.08;;;4.10;99.90;;;;;;5065233;28;20300;-47
2021/03/10 05:50:12;;;;;;;47.28;25.52;;;4.10;99.90;;;;;;5068465;28;20028;-48
2021/03/10 05:52:38;;;;;;;52.42;27.23;;;4.10;99.90;;;;;;5062604;28;20406;-47
2021/03/10 05:55:06;;;;;;;43.38;25.38;;;4.10;99.90;;;;;;5046606;28;20025;-46
2021/03/10 05:57:32;;;;;;;50.42;27.52;;;4.00;99.90;;;;;;5048138;28;20029;-46
2021/03/10 05:59:57;;;;;;;54.85;28.92;;;4.10;99.90;;;;;;5048071;28;20044;-49
2021/03/10 06:02:22;;;;;;;48.30;28.20;;;4.00;99.90;;;;;;5047998;28;20031;-47
2021/03/10 06:04:48;;;;;;;52.85;27.33;;;4.00;99.90;;;;;;5047827;28;20350;-46
2021/03/10 06:07:21;;;;;;;51.17;28.33;;;4.00;99.90;;;;;;5046574;28;20056;-47
2021/03/10 06:10:03;;;;;;;48.83;27.98;;;4.00;99.90;;;;;;5047906;28;20051;-49
2021/03/10 06:12:42;;;;;;;53.40;28.85;;;4.00;99.90;;;;;;5055258;28;20029;-46
2021/03/10 06:15:09;;;;;;;53.60;29.88;;;4.10;99.90;;;;;;5055864;28;20029;-46
2021/03/10 06:17:48;;;;;;;54.92;29.65;;;4.00;99.90;;;;;;5046495;28;20128;-46
2021/03/10 06:20:25;;;;;;;56.78;28.60;;;4.00;99.90;;;;;;5047851;28;20504;-47
2021/03/10 06:22:52;;;;;;;56.17;31.65;;;4.00;99.90;;;;;;5048030;28;20367;-46
2021/03/10 06:25:18;;;;;;;55.75;29.52;;;4.00;99.90;;;;;;5047555;28;20421;-47
2021/03/10 06:27:57;;;;;;;58.60;30.88;;;4.00;99.90;;;;;;5066063;28;20029;-47
2021/03/10 06:30:36;;;;;;;55.17;29.83;;;4.10;99.90;;;;;;5056607;28;20453;-46
2021/03/10 06:33:03;;;;;;;57.65;31.17;;;4.10;99.90;;;;;;5051574;28;20049;-48
2021/03/10 06:35:29;;;;;;;50.65;29.30;;;4.10;99.90;;;;;;5049993;28;20090;-46
2021/03/10 06:38:18;;;;;;;56.97;29.67;;;4.10;99.90;;;;;;5051221;28;20025;-50
2021/03/10 06:40:50;;;;;;;54.72;30.80;;;4.00;99.90;;;;;;5056794;28;20025;-47
2021/03/10 06:43:18;;;;;;;60.47;31.42;;;4.00;99.90;;;;;;5051067;28;20036;-49
2021/03/10 06:45:45;;;;;;;62.67;31.60;;;3.90;99.90;;;;;;5062077;28;20432;-46
2021/03/10 06:48:18;;;;;;;64.40;31.65;;;3.90;99.90;;;;;;5061621;28;20464;-49
2021/03/10 06:50:45;;;;;;;52.67;30.00;;;4.00;99.90;;;;;;5058808;28;20033;-48
2021/03/10 06:53:12;;;;;;;58.03;31.10;;;4.00;99.90;;;;;;5060342;28;20017;-47
2021/03/10 06:55:44;;;;;;;59.75;29.50;;;4.10;99.90;;;;;;5057838;28;20501;-46
2021/03/10 06:58:10;;;;;;;63.58;31.85;;;4.10;99.90;;;;;;5060501;28;20027;-47
2021/03/10 07:00:37;;;;;;;59.75;31.70;;;4.10;99.90;;;;;;5056619;28;20036;-48
2021/03/10 07:03:03;;;;;;;59.95;32.05;;;4.10;99.90;;;;;;5059802;28;20060;-47
2021/03/10 07:05:30;;;;;;;52.70;29.45;;;4.20;99.90;;;;;;5051689;28;20115;-48
2021/03/10 07:07:57;;;;;;;55.40;31.20;;;4.20;99.90;;;;;;5050865;28;20060;-47
2021/03/10 07:10:26;;;;;;;59.83;31.10;;;4.30;99.90;;;;;;5051788;28;20195;-46
2021/03/10 07:12:55;;;;;;;59.33;31.73;;;4.30;99.90;;;;;;5050534;28;20437;-47
2021/03/10 07:15:21;;;;;;;55.72;30.38;;;4.20;99.90;;;;;;5068553;28;20498;-48
2021/03/10 07:17:48;;;;;;;57.35;31.05;;;4.10;99.90;;;;;;5070523;28;20033;-47
2021/03/10 07:20:14;;;;;;;68.28;34.05;;;4.10;99.90;;;;;;5068840;28;20029;-46
2021/03/10 07:22:57;;;;;;;65.18;33.42;;;4.00;99.90;;;;;;5053871;28;20036;-46
2021/03/10 07:25:30;;;;;;;67.25;33.28;;;4.00;99.90;;;;;;5068561;28;20035;-49
2021/03/10 07:28:12;;;;;;;64.47;32.13;;;4.10;99.90;;;;;;5070630;28;20029;-46
2021/03/10 07:30:56;;;;;;;65.43;33.13;;;4.20;99.90;;;;;;5054550;28;20033;-49
2021/03/10 07:33:23;;;;;;;59.92;32.80;;;4.30;99.90;;;;;;5057001;28;20107;-46
2021/03/10 07:35:50;;;;;;;68.28;34.35;;;4.40;99.90;;;;;;5063492;28;20120;-50
2021/03/10 07:38:18;;;;;;;63.38;32.08;;;4.40;99.90;;;;;;5060864;28;20024;-46
2021/03/10 07:41:14;;;;;;;65.93;32.45;;;4.50;99.90;;;;;;5057908;28;20170;-48
2021/03/10 07:43:46;;;;;;;61.78;32.08;;;4.50;99.90;;;;;;5059931;28;20032;-45
2021/03/10 07:46:29;;;;;;;63.33;31.70;;;4.60;99.90;;;;;;5063926;28;20025;-49
2021/03/10 07:48:56;;;;;;;63.83;32.17;;;4.50;99.90;;;;;;5058188;28;20028;-49
2021/03/10 07:51:22;;;;;;;72.35;35.13;;;4.50;99.90;;;;;;5070106;28;20028;-48
2021/03/10 07:53:48;;;;;;;65.65;33.40;;;4.60;99.90;;;;;;5069771;28;20029;-46
2021/03/10 07:56:29;;;;;;;69.57;35.28;;;4.60;99.90;;;;;;5069292;28;20017;-48
2021/03/10 07:59:07;;;;;;;67.18;32.85;;;4.70;99.90;;;;;;5068556;28;20021;-46
2021/03/10 08:01:32;;;;;;;73.65;34.53;;;4.80;99.90;;;;;;5049323;28;20017;-46
2021/03/10 08:04:07;;;;;;;63.58;33.10;;;4.80;99.90;;;;;;5055879;28;20496;-47
2021/03/10 08:06:52;;;;;;;62.75;33.10;;;4.80;99.90;;;;;;5049046;28;20029;-45
2021/03/10 08:09:19;;;;;;;68.82;34.22;;;4.70;99.90;;;;;;5050723;28;20021;-46
2021/03/10 08:12:01;;;;;;;73.63;34.58;;;4.70;99.90;;;;;;5049101;28;20021;-46
2021/03/10 08:14:46;;;;;;;64.28;33.00;;;4.80;99.90;;;;;;5049523;28;20036;-46
2021/03/10 08:17:23;;;;;;;70.40;36.63;;;5.10;99.90;;;;;;5049079;28;20057;-46
2021/03/10 08:19:53;;;;;;;70.38;34.30;;;5.20;99.90;;;;;;5060209;28;20085;-46
2021/03/10 08:22:26;;;;;;;47.30;23.50;;;5.30;99.90;;;;;;5069530;28;20021;-50
2021/03/10 08:24:55;;;;;;;66.72;31.75;;;5.60;99.90;;;;;;5064722;28;20128;-47
2021/03/10 08:27:34;;;;;;;59.90;32.13;;;5.90;99.90;;;;;;5047989;28;20502;-46
2021/03/10 08:30:03;;;;;;;65.22;34.30;;;6.30;99.90;;;;;;5061224;28;20509;-48
2021/03/10 08:32:31;;;;;;;66.35;35.00;;;6.40;99.90;;;;;;5069616;28;20342;-46
2021/03/10 08:35:05;;;;;;;63.75;33.45;;;6.60;99.90;;;;;;5067480;28;20025;-48
2021/03/10 08:37:31;;;;;;;66.22;33.90;;;6.80;99.90;;;;;;5068888;28;20429;-46
2021/03/10 08:39:57;;;;;;;71.85;35.30;;;6.80;99.90;;;;;;5055055;28;20033;-46
2021/03/10 08:42:23;;;;;;;69.78;35.25;;;6.90;99.90;;;;;;5063008;28;20090;-46
2021/03/10 08:44:50;;;;;;;57.45;34.20;;;7.00;99.90;;;;;;5060269;28;20083;-45
2021/03/10 08:47:19;;;;;;;64.03;34.72;;;7.20;99.90;;;;;;5056403;28;20057;-48
2021/03/10 08:49:58;;;;;;;64.97;35.78;;;7.30;99.90;;;;;;5063135;28;20416;-47
2021/03/10 08:52:25;;;;;;;60.85;33.83;;;7.20;99.90;;;;;;5058317;28;20425;-49
2021/03/10 08:55:03;;;;;;;57.08;31.75;;;7.30;99.90;;;;;;5052015;28;20029;-49
2021/03/10 08:57:32;;;;;;;61.00;32.53;;;7.50;99.90;;;;;;5057721;28;20384;-47
2021/03/10 09:00:00;;;;;;;59.25;33.03;;;7.30;99.90;;;;;;5057965;28;20064;-46
2021/03/10 09:02:27;;;;;;;66.75;34.85;;;7.20;99.90;;;;;;5058499;28;20028;-46
2021/03/10 09:04:55;;;;;;;59.45;32.58;;;7.30;99.90;;;;;;5055234;28;20031;-46
2021/03/10 09:07:22;;;;;;;55.83;30.95;;;7.30;99.90;;;;;;5059078;28;20013;-46
2021/03/10 09:09:52;;;;;;;57.70;32.17;;;7.30;99.90;;;;;;5054881;28;20442;-46
2021/03/10 09:12:18;;;;;;;;;;;7.20;99.90;;;;;;5056728;28;20024;-47
2021/03/10 09:14:45;;;;;;;67.60;34.83;;;7.50;99.90;;;;;;5055896;28;20304;-47
2021/03/10 09:17:10;;;;;;;61.92;32.85;;;7.50;99.90;;;;;;5055480;28;20028;-48
2021/03/10 09:19:54;;;;;;;59.28;32.22;;;7.70;99.90;;;;;;5065058;28;20029;-48
2021/03/10 09:22:23;;;;;;;59.00;32.08;;;7.70;99.90;;;;;;5064871;28;20429;-46
2021/03/10 09:24:57;;;;;;;61.20;34.72;;;8.00;99.90;;;;;;5058736;28;20124;-48
2021/03/10 09:27:25;;;;;;;70.75;38.10;;;7.90;99.90;;;;;;5058585;28;20039;-46
2021/03/10 09:29:54;;;;;;;63.15;34.97;;;7.80;99.90;;;;;;5056735;28;20024;-47
2021/03/10 09:32:20;;;;;;;58.80;33.05;;;7.80;99.90;;;;;;5057680;28;20009;-46
2021/03/10 09:34:47;;;;;;;62.42;34.85;;;7.90;99.90;;;;;;5055877;28;20112;-46
2021/03/10 09:37:13;;;;;;;69.55;38.22;;;7.90;99.90;;;;;;5055691;28;20028;-47
2021/03/10 09:39:41;;;;;;;59.10;35.55;;;8.10;99.90;;;;;;5054046;28;20032;-46
2021/03/10 09:42:08;;;;;;;68.95;37.72;;;8.40;99.90;;;;;;5057891;28;20112;-47
2021/03/10 09:44:46;;;;;;;64.82;36.53;;;8.60;99.90;;;;;;5056632;28;20032;-46
2021/03/10 09:47:14;;;;;;;66.13;37.75;;;8.80;99.90;;;;;;5057100;28;20018;-46
2021/03/10 09:49:52;;;;;;;63.47;36.53;;;8.90;99.90;;;;;;5057848;28;20504;-46
2021/03/10 09:52:18;;;;;;;65.47;37.75;;;9.20;99.90;;;;;;5058171;28;20029;-46
2021/03/10 09:54:52;;;;;;;69.47;38.45;;;9.20;99.90;;;;;;5056259;28;20040;-48
2021/03/10 09:57:27;;;;;;;70.70;40.28;;;8.70;99.90;;;;;;5057879;28;20478;-46
2021/03/10 09:59:53;;;;;;;64.65;38.20;;;8.60;99.90;;;;;;5057290;28;20040;-49
2021/03/10 10:02:19;;;;;;;65.32;38.10;;;9.10;99.90;;;;;;5059720;28;20075;-47
2021/03/10 10:04:55;;;;;;;62.05;36.53;;;9.10;99.90;;;;;;5057803;28;20421;-50
2021/03/10 10:07:20;;;;;;;55.50;33.05;;;9.10;99.90;;;;;;5062408;28;20016;-50
2021/03/10 10:09:46;;;;;;;60.90;33.85;;;8.50;98.60;;;;;;5068699;28;20029;-48
2021/03/10 10:12:12;;;;;;;57.00;32.45;;;8.30;99.90;;;;;;5060945;28;20029;-46
2021/03/10 10:14:37;;;;;;;53.45;30.15;;;8.00;99.90;;;;;;5053480;28;20033;-47
2021/03/10 10:17:04;;;;;;;53.50;29.73;;;8.20;99.90;;;;;;5052177;28;20608;-47
2021/03/10 10:19:30;;;;;;;48.42;27.90;;;8.20;99.90;;;;;;5062489;28;20059;-47
2021/03/10 10:21:56;;;;;;;45.00;26.40;;;8.30;99.90;;;;;;5072859;28;20100;-47
2021/03/10 10:24:21;;;;;;;43.13;23.98;;;8.20;99.70;;;;;;5068326;28;20732;-47
2021/03/10 10:26:48;;;;;;;36.95;22.20;;;8.10;98.60;;;;;;5069874;28;20032;-47
2021/03/10 10:29:14;;;;;;;35.50;21.08;;;7.80;97.70;;;;;;5072841;28;20016;-47
2021/03/10 10:31:39;;;;;;;50.65;29.50;;;7.90;97.60;;;;;;5064877;28;20032;-47
2021/03/10 10:34:05;;;;;;;59.80;33.03;;;8.30;98.90;;;;;;5051444;28;20044;-47
2021/03/10 10:36:30;;;;;;;35.15;21.25;;;8.80;99.90;;;;;;5050726;28;20029;-46
2021/03/10 10:38:56;;;;;;;32.67;21.27;;;8.50;94.00;;;;;;5053693;28;20095;-47
2021/03/10 10:41:21;;;;;;;31.00;19.85;;;8.30;95.20;;;;;;5056783;28;20478;-47
2021/03/10 10:43:48;;;;;;;28.00;18.10;;;8.30;94.00;;;;;;5059557;28;20037;-49
2021/03/10 10:46:13;;;;;;;22.63;15.05;;;8.50;90.20;;;;;;5059028;28;20099;-47
2021/03/10 10:48:39;;;;;;;23.83;14.95;;;9.20;77.70;;;;;;5059552;28;20027;-47
2021/03/10 10:51:04;;;;;;;26.10;17.17;;;9.40;74.30;;;;;;5061319;28;20052;-50
2021/03/10 10:53:30;;;;;;;26.92;17.17;;;9.20;76.80;;;;;;5069948;28;20052;-49
2021/03/10 10:55:55;;;;;;;23.98;15.50;;;9.40;75.90;;;;;;5072327;28;20032;-50
2021/03/10 10:58:21;;;;;;;33.83;19.02;;;8.90;79.60;;;;;;5072462;28;20032;-47
2021/03/10 11:00:46;;;;;;;29.67;18.02;;;8.70;78.20;;;;;;5051374;28;20033;-49
2021/03/10 11:03:12;;;;;;;27.13;16.73;;;8.40;81.90;;;;;;5052052;28;20032;-47
2021/03/10 11:05:37;;;;;;;24.10;16.60;;;8.60;78.70;;;;;;5057938;28;20120;-49
2021/03/10 11:08:03;;;;;;;25.45;15.95;;;8.50;80.40;;;;;;5060514;28;20017;-48
2021/03/10 11:10:28;;;;;;;26.65;15.95;;;8.30;78.00;;;;;;5061275;28;20107;-47
2021/03/10 11:12:54;;;;;;;26.38;16.90;;;8.20;82.00;;;;;;5060665;28;20056;-47
2021/03/10 11:15:19;;;;;;;27.25;16.60;;;8.30;81.40;;;;;;5055395;28;20111;-49
2021/03/10 11:17:45;;;;;;;25.65;17.75;;;8.40;83.80;;;;;;5060632;28;20474;-46
2021/03/10 11:20:10;;;;;;;29.27;17.92;;;8.60;81.30;;;;;;5060007;28;20091;-47
2021/03/10 11:22:37;;;;;;;28.52;18.85;;;8.20;80.60;;;;;;5060028;28;20115;-47
2021/03/10 11:25:07;;;;;;;27.30;16.95;;;8.00;82.90;;;;;;5060154;28;20024;-46
2021/03/10 11:27:33;;;;;;;26.83;17.08;;;8.00;82.80;;;;;;5057241;28;20120;-48
2021/03/10 11:29:58;;;;;;;27.25;16.90;;;8.20;83.50;;;;;;5054889;28;20534;-47
2021/03/10 11:32:23;;;;;;;26.75;17.38;;;8.50;81.70;;;;;;5051027;28;20092;-46
2021/03/10 11:34:49;;;;;;;28.10;18.17;;;8.30;78.90;;;;;;5051125;28;20038;-46
2021/03/10 11:37:17;;;;;;;30.85;18.13;;;8.50;80.80;;;;;;5048423;28;20119;-48
2021/03/10 11:39:42;;;;;;;31.42;18.85;;;8.50;81.80;;;;;;5061372;28;20024;-47
2021/03/10 11:42:08;;;;;;;32.08;18.38;;;8.50;84.70;;;;;;5054201;28;20044;-47
2021/03/10 11:44:34;;;;;;;28.85;18.55;;;8.10;82.20;;;;;;5051642;28;20025;-47
2021/03/10 11:46:59;;;;;;;30.95;18.75;;;8.10;84.30;;;;;;5050981;28;20029;-47
2021/03/10 11:49:25;;;;;;;29.73;18.63;;;8.10;82.60;;;;;;5054988;28;20025;-50
2021/03/10 11:51:50;;;;;;;31.02;18.80;;;7.90;83.10;;;;;;5052578;28;20032;-47
2021/03/10 11:54:16;;;;;;;32.63;19.13;;;7.80;83.30;;;;;;5051601;28;20074;-46
2021/03/10 11:56:42;;;;;;;29.15;18.60;;;7.70;84.40;;;;;;5054900;28;20021;-48
2021/03/10 11:59:07;;;;;;;30.02;18.23;;;7.70;84.10;;;;;;5069525;28;20130;-47
2021/03/10 12:01:33;;;;;;;33.72;19.52;;;7.90;86.90;;;;;;5071254;28;20037;-46
2021/03/10 12:03:58;;;;;;;34.33;18.42;;;8.10;85.40;;;;;;5070797;28;20124;-47
2021/03/10 12:06:23;;;;;;;32.88;19.25;;;8.40;84.10;;;;;;5067281;28;20037;-47
2021/03/10 12:08:49;;;;;;;31.60;20.02;;;8.70;81.90;;;;;;5060223;28;20024;-48
2021/03/10 12:11:15;;;;;;;31.90;20.40;;;9.20;80.70;;;;;;5057145;28;20021;-47
2021/03/10 12:13:40;;;;;;;32.45;20.20;;;9.30;79.70;;;;;;5059213;28;20021;-47
2021/03/10 12:16:06;;;;;;;32.38;19.05;;;10.00;79.10;;;;;;5058870;28;20078;-47
2021/03/10 12:18:32;;;;;;;31.30;21.10;;;10.30;76.60;;;;;;5061597;28;20031;-48
2021/03/10 12:20:58;;;;;;;31.70;21.15;;;9.80;74.30;;;;;;5070590;28;20029;-47
2021/03/10 12:23:23;;;;;;;32.17;20.80;;;9.50;78.30;;;;;;5070601;28;20025;-47
2021/03/10 12:25:49;;;;;;;33.80;20.55;;;9.00;77.10;;;;;;5066880;28;20068;-46
2021/03/10 12:28:14;;;;;;;33.15;21.15;;;8.50;78.30;;;;;;5069024;28;20020;-46
2021/03/10 12:30:40;;;;;;;31.95;20.42;;;8.10;80.70;;;;;;5053257;28;20025;-45
2021/03/10 12:33:06;;;;;;;33.78;19.80;;;8.20;83.10;;;;;;5067765;28;20497;-48
2021/03/10 12:35:32;;;;;;;34.20;20.88;;;8.50;80.60;;;;;;5048500;28;20033;-47
2021/03/10 12:37:58;;;;;;;34.35;20.40;;;9.10;78.60;;;;;;5049141;28;20033;-47
2021/03/10 12:40:24;;;;;;;31.50;20.52;;;9.50;76.20;;;;;;5065214;28;20086;-48
2021/03/10 12:42:50;;;;;;;35.47;21.40;;;9.90;78.20;;;;;;5064282;28;20028;-49